sensor_id;sensor_type;location;lat;lon;timestamp;pressure;altitude;pressure_sealevel;temperature;humidity
46111;BME280;31849;55.992;37.252;2024-02-16T00:02:08;100712.81;;;-9.33;65.48
46111;BME280;31849;55.992;37.252;2024-02-16T00:07:12;100718.00;;;-9.23;65.52
46111;BME280;31849;55.992;37.252;2024-02-16T00:12:17;100714.28;;;-9.09;65.14
46111;BME280;31849;55.992;37.252;2024-02-16T00:17:21;100702.13;;;-9.31;65.41
46111;BME280;31849;55.992;37.252;2024-02-16T00:22:28;100707.16;;;-9.31;66.08
46111;BME280;31849;55.992;37.252;2024-02-16T00:27:33;100715.47;;;-9.23;65.10
46111;BME280;31849;55.992;37.252;2024-02-16T00:32:37;100717.66;;;-9.00;64.88
46111;BME280;31849;55.992;37.252;2024-02-16T00:37:41;100709.97;;;-9.10;65.67
46111;BME280;31849;55.992;37.252;2024-02-16T00:42:46;100717.34;;;-8.94;64.63
46111;BME280;31849;55.992;37.252;2024-02-16T00:47:50;100704.47;;;-9.06;65.68
46111;BME280;31849;55.992;37.252;2024-02-16T00:52:54;100709.38;;;-8.99;64.72
46111;BME280;31849;55.992;37.252;2024-02-16T00:57:59;100711.16;;;-8.98;64.56
46111;BME280;31849;55.992;37.252;2024-02-16T01:03:03;100720.00;;;-8.84;65.21
46111;BME280;31849;55.992;37.252;2024-02-16T01:08:07;100688.41;;;-8.89;64.75
46111;BME280;31849;55.992;37.252;2024-02-16T01:13:12;100696.91;;;-8.97;65.54
46111;BME280;31849;55.992;37.252;2024-02-16T01:18:16;100690.84;;;-9.08;65.15
46111;BME280;31849;55.992;37.252;2024-02-16T01:23:20;100691.75;;;-9.25;66.01
46111;BME280;31849;55.992;37.252;2024-02-16T01:28:25;100691.00;;;-9.07;66.13
46111;BME280;31849;55.992;37.252;2024-02-16T01:33:29;100685.06;;;-9.16;66.36
46111;BME280;31849;55.992;37.252;2024-02-16T01:38:37;100697.53;;;-9.17;66.04
46111;BME280;31849;55.992;37.252;2024-02-16T01:43:42;100685.34;;;-9.13;65.69
46111;BME280;31849;55.992;37.252;2024-02-16T01:48:46;100682.06;;;-8.86;65.70
46111;BME280;31849;55.992;37.252;2024-02-16T01:53:50;100692.72;;;-8.88;66.28
46111;BME280;31849;55.992;37.252;2024-02-16T01:58:56;100683.28;;;-8.99;66.39
46111;BME280;31849;55.992;37.252;2024-02-16T02:04:00;100689.94;;;-8.91;66.66
46111;BME280;31849;55.992;37.252;2024-02-16T02:09:04;100690.50;;;-8.85;65.73
46111;BME280;31849;55.992;37.252;2024-02-16T02:14:09;100680.25;;;-8.78;65.68
46111;BME280;31849;55.992;37.252;2024-02-16T02:19:13;100677.13;;;-8.75;65.55
46111;BME280;31849;55.992;37.252;2024-02-16T02:24:19;100679.38;;;-8.78;65.80
46111;BME280;31849;55.992;37.252;2024-02-16T02:29:23;100675.94;;;-8.79;66.21
46111;BME280;31849;55.992;37.252;2024-02-16T02:34:27;100676.13;;;-8.86;66.26
46111;BME280;31849;55.992;37.252;2024-02-16T02:39:33;100678.34;;;-8.89;66.26
46111;BME280;31849;55.992;37.252;2024-02-16T02:44:37;100685.69;;;-9.18;67.54
46111;BME280;31849;55.992;37.252;2024-02-16T02:49:41;100682.66;;;-8.88;66.50
46111;BME280;31849;55.992;37.252;2024-02-16T02:54:46;100688.00;;;-8.94;67.03
46111;BME280;31849;55.992;37.252;2024-02-16T02:59:50;100699.56;;;-8.87;66.76
46111;BME280;31849;55.992;37.252;2024-02-16T03:04:54;100704.63;;;-8.96;67.19
46111;BME280;31849;55.992;37.252;2024-02-16T03:09:59;100702.69;;;-8.98;66.44
46111;BME280;31849;55.992;37.252;2024-02-16T03:15:04;100720.03;;;-9.02;66.71
46111;BME280;31849;55.992;37.252;2024-02-16T03:20:09;100710.81;;;-8.92;66.92
46111;BME280;31849;55.992;37.252;2024-02-16T03:25:15;100707.88;;;-9.06;67.36
46111;BME280;31849;55.992;37.252;2024-02-16T03:30:18;100708.31;;;-8.92;66.57
46111;BME280;31849;55.992;37.252;2024-02-16T03:35:22;100704.16;;;-8.92;66.98
46111;BME280;31849;55.992;37.252;2024-02-16T03:40:28;100705.16;;;-8.72;66.25
46111;BME280;31849;55.992;37.252;2024-02-16T03:45:32;100683.94;;;-8.74;66.73
46111;BME280;31849;55.992;37.252;2024-02-16T03:50:36;100702.78;;;-8.71;66.10
46111;BME280;31849;55.992;37.252;2024-02-16T03:55:41;100692.53;;;-8.72;66.92
46111;BME280;31849;55.992;37.252;2024-02-16T04:00:45;100688.97;;;-8.74;66.67
46111;BME280;31849;55.992;37.252;2024-02-16T04:06:03;100694.63;;;-8.77;66.89
46111;BME280;31849;55.992;37.252;2024-02-16T04:11:11;100690.94;;;-8.89;67.39
46111;BME280;31849;55.992;37.252;2024-02-16T04:16:15;100696.06;;;-8.61;66.14
46111;BME280;31849;55.992;37.252;2024-02-16T04:21:19;100684.38;;;-8.70;66.28
46111;BME280;31849;55.992;37.252;2024-02-16T04:26:25;100676.59;;;-8.90;67.47
46111;BME280;31849;55.992;37.252;2024-02-16T04:31:29;100666.50;;;-8.90;66.61
46111;BME280;31849;55.992;37.252;2024-02-16T04:36:33;100662.03;;;-8.84;67.11
46111;BME280;31849;55.992;37.252;2024-02-16T04:41:38;100653.53;;;-8.76;66.49
46111;BME280;31849;55.992;37.252;2024-02-16T04:46:42;100664.41;;;-8.86;67.17
46111;BME280;31849;55.992;37.252;2024-02-16T04:51:46;100659.69;;;-9.00;68.07
46111;BME280;31849;55.992;37.252;2024-02-16T04:56:51;100661.56;;;-8.71;67.08
46111;BME280;31849;55.992;37.252;2024-02-16T05:01:55;100665.81;;;-8.61;66.09
46111;BME280;31849;55.992;37.252;2024-02-16T05:07:17;100675.00;;;-8.62;66.36
46111;BME280;31849;55.992;37.252;2024-02-16T05:12:23;100684.75;;;-8.47;66.17
46111;BME280;31849;55.992;37.252;2024-02-16T05:17:27;100694.44;;;-8.61;66.22
46111;BME280;31849;55.992;37.252;2024-02-16T05:22:31;100709.06;;;-8.48;65.72
46111;BME280;31849;55.992;37.252;2024-02-16T05:27:36;100711.00;;;-8.45;65.86
46111;BME280;31849;55.992;37.252;2024-02-16T05:32:40;100708.22;;;-8.57;66.35
46111;BME280;31849;55.992;37.252;2024-02-16T05:37:44;100716.13;;;-8.35;65.91
46111;BME280;31849;55.992;37.252;2024-02-16T05:42:53;100714.69;;;-8.14;65.89
46111;BME280;31849;55.992;37.252;2024-02-16T05:48:00;100711.59;;;-8.20;66.02
46111;BME280;31849;55.992;37.252;2024-02-16T05:58:36;100707.75;;;-8.25;65.69
46111;BME280;31849;55.992;37.252;2024-02-16T06:03:41;100715.44;;;-8.24;65.63
46111;BME280;31849;55.992;37.252;2024-02-16T06:08:46;100707.69;;;-8.17;65.97
46111;BME280;31849;55.992;37.252;2024-02-16T06:13:51;100710.34;;;-8.34;65.91
46111;BME280;31849;55.992;37.252;2024-02-16T06:18:55;100714.84;;;-8.21;65.60
46111;BME280;31849;55.992;37.252;2024-02-16T06:24:03;100721.78;;;-8.10;65.52
46111;BME280;31849;55.992;37.252;2024-02-16T06:29:09;100726.69;;;-7.84;65.52
46111;BME280;31849;55.992;37.252;2024-02-16T06:34:13;100726.16;;;-7.71;64.99
46111;BME280;31849;55.992;37.252;2024-02-16T06:39:17;100718.94;;;-7.57;64.43
46111;BME280;31849;55.992;37.252;2024-02-16T06:44:23;100717.53;;;-7.45;64.78
46111;BME280;31849;55.992;37.252;2024-02-16T06:49:28;100706.44;;;-7.37;64.59
46111;BME280;31849;55.992;37.252;2024-02-16T06:54:31;100713.16;;;-7.18;63.58
46111;BME280;31849;55.992;37.252;2024-02-16T06:59:37;100710.75;;;-7.36;63.91
46111;BME280;31849;55.992;37.252;2024-02-16T07:04:41;100705.56;;;-7.37;64.32
46111;BME280;31849;55.992;37.252;2024-02-16T07:09:45;100702.59;;;-7.23;64.08
46111;BME280;31849;55.992;37.252;2024-02-16T07:14:51;100702.19;;;-7.47;64.38
46111;BME280;31849;55.992;37.252;2024-02-16T07:19:55;100706.16;;;-7.21;63.35
46111;BME280;31849;55.992;37.252;2024-02-16T07:24:59;100721.19;;;-7.22;63.18
46111;BME280;31849;55.992;37.252;2024-02-16T07:30:19;100719.66;;;-7.01;63.38
46111;BME280;31849;55.992;37.252;2024-02-16T07:35:37;100728.31;;;-7.18;63.36
46111;BME280;31849;55.992;37.252;2024-02-16T07:40:41;100720.16;;;-7.25;63.16
46111;BME280;31849;55.992;37.252;2024-02-16T07:45:49;100721.66;;;-7.08;63.28
46111;BME280;31849;55.992;37.252;2024-02-16T07:50:56;100715.47;;;-7.30;63.37
46111;BME280;31849;55.992;37.252;2024-02-16T07:56:05;100727.16;;;-6.93;63.57
46111;BME280;31849;55.992;37.252;2024-02-16T08:01:11;100720.63;;;-7.10;63.21
46111;BME280;31849;55.992;37.252;2024-02-16T08:06:18;100715.00;;;-6.67;62.23
46111;BME280;31849;55.992;37.252;2024-02-16T08:11:26;100711.91;;;-6.55;62.38
46111;BME280;31849;55.992;37.252;2024-02-16T08:16:32;100716.41;;;-6.21;61.30
46111;BME280;31849;55.992;37.252;2024-02-16T08:21:36;100722.84;;;-6.25;61.68
46111;BME280;31849;55.992;37.252;2024-02-16T08:26:40;100724.63;;;-5.93;61.23
46111;BME280;31849;55.992;37.252;2024-02-16T08:31:47;100724.00;;;-5.70;60.29
46111;BME280;31849;55.992;37.252;2024-02-16T08:36:52;100720.09;;;-5.97;60.78
46111;BME280;31849;55.992;37.252;2024-02-16T08:41:57;100729.69;;;-6.13;60.58
46111;BME280;31849;55.992;37.252;2024-02-16T08:47:02;100733.63;;;-5.66;59.90
46111;BME280;31849;55.992;37.252;2024-02-16T08:52:06;100723.75;;;-5.93;60.58
46111;BME280;31849;55.992;37.252;2024-02-16T08:57:10;100728.22;;;-6.01;60.15
46111;BME280;31849;55.992;37.252;2024-02-16T09:02:16;100723.09;;;-6.32;61.14
46111;BME280;31849;55.992;37.252;2024-02-16T09:07:20;100725.06;;;-6.48;61.05
46111;BME280;31849;55.992;37.252;2024-02-16T09:12:24;100738.22;;;-6.82;61.08
46111;BME280;31849;55.992;37.252;2024-02-16T09:17:30;100735.50;;;-6.94;60.82
46111;BME280;31849;55.992;37.252;2024-02-16T09:22:34;100722.78;;;-6.85;61.79
46111;BME280;31849;55.992;37.252;2024-02-16T09:27:39;100719.00;;;-7.09;61.58
46111;BME280;31849;55.992;37.252;2024-02-16T09:32:49;100701.16;;;-7.11;62.15
46111;BME280;31849;55.992;37.252;2024-02-16T09:37:53;100701.41;;;-6.88;61.71
46111;BME280;31849;55.992;37.252;2024-02-16T09:42:58;100698.31;;;-6.95;61.31
46111;BME280;31849;55.992;37.252;2024-02-16T09:48:07;100687.69;;;-6.61;61.03
46111;BME280;31849;55.992;37.252;2024-02-16T09:53:12;100689.78;;;-5.95;60.13
46111;BME280;31849;55.992;37.252;2024-02-16T09:58:17;100690.94;;;-5.81;60.21
46111;BME280;31849;55.992;37.252;2024-02-16T10:03:27;100689.03;;;-5.84;60.44
46111;BME280;31849;55.992;37.252;2024-02-16T10:08:31;100682.63;;;-6.11;60.67
46111;BME280;31849;55.992;37.252;2024-02-16T10:13:35;100686.00;;;-5.80;60.33
46111;BME280;31849;55.992;37.252;2024-02-16T10:18:41;100687.50;;;-5.72;60.09
46111;BME280;31849;55.992;37.252;2024-02-16T10:23:55;100670.44;;;-5.64;60.00
46111;BME280;31849;55.992;37.252;2024-02-16T10:29:02;100663.97;;;-5.18;59.15
46111;BME280;31849;55.992;37.252;2024-02-16T10:34:07;100667.06;;;-5.42;59.29
46111;BME280;31849;55.992;37.252;2024-02-16T10:39:12;100666.94;;;-5.34;58.56
46111;BME280;31849;55.992;37.252;2024-02-16T10:44:17;100671.78;;;-5.57;58.64
46111;BME280;31849;55.992;37.252;2024-02-16T10:49:22;100678.13;;;-5.52;58.79
46111;BME280;31849;55.992;37.252;2024-02-16T10:54:30;100689.53;;;-5.47;59.72
46111;BME280;31849;55.992;37.252;2024-02-16T10:59:41;100673.94;;;-5.41;59.24
46111;BME280;31849;55.992;37.252;2024-02-16T11:04:47;100675.59;;;-5.52;58.64
46111;BME280;31849;55.992;37.252;2024-02-16T11:09:52;100676.97;;;-5.45;58.72
46111;BME280;31849;55.992;37.252;2024-02-16T11:14:56;100683.03;;;-5.33;58.39
46111;BME280;31849;55.992;37.252;2024-02-16T11:20:02;100670.22;;;-5.35;58.43
46111;BME280;31849;55.992;37.252;2024-02-16T11:25:07;100676.94;;;-5.25;58.39
46111;BME280;31849;55.992;37.252;2024-02-16T11:30:12;100674.34;;;-5.04;57.84
46111;BME280;31849;55.992;37.252;2024-02-16T11:35:17;100664.19;;;-5.04;57.98
46111;BME280;31849;55.992;37.252;2024-02-16T11:40:22;100670.97;;;-5.25;58.42
46111;BME280;31849;55.992;37.252;2024-02-16T11:45:39;100664.63;;;-5.20;58.65
46111;BME280;31849;55.992;37.252;2024-02-16T11:50:45;100674.50;;;-5.13;58.07
46111;BME280;31849;55.992;37.252;2024-02-16T11:55:50;100662.25;;;-4.97;57.82
46111;BME280;31849;55.992;37.252;2024-02-16T12:00:54;100683.19;;;-4.99;58.04
46111;BME280;31849;55.992;37.252;2024-02-16T12:06:05;100674.91;;;-5.29;59.02
46111;BME280;31849;55.992;37.252;2024-02-16T12:11:10;100673.78;;;-5.33;58.79
46111;BME280;31849;55.992;37.252;2024-02-16T12:16:14;100675.81;;;-4.96;58.02
46111;BME280;31849;55.992;37.252;2024-02-16T12:21:19;100676.47;;;-4.99;57.73
46111;BME280;31849;55.992;37.252;2024-02-16T12:26:23;100680.19;;;-5.16;58.75
46111;BME280;31849;55.992;37.252;2024-02-16T12:31:27;100687.06;;;-5.25;58.35
46111;BME280;31849;55.992;37.252;2024-02-16T12:36:35;100681.25;;;-5.24;58.15
46111;BME280;31849;55.992;37.252;2024-02-16T12:41:39;100682.94;;;-5.02;58.70
46111;BME280;31849;55.992;37.252;2024-02-16T12:46:45;100684.75;;;-5.12;58.91
46111;BME280;31849;55.992;37.252;2024-02-16T12:51:51;100689.25;;;-5.30;59.43
46111;BME280;31849;55.992;37.252;2024-02-16T12:56:57;100681.94;;;-5.04;58.68
46111;BME280;31849;55.992;37.252;2024-02-16T13:02:01;100681.78;;;-4.96;58.93
46111;BME280;31849;55.992;37.252;2024-02-16T13:07:06;100677.63;;;-5.05;58.66
46111;BME280;31849;55.992;37.252;2024-02-16T13:12:10;100680.47;;;-5.33;59.57
46111;BME280;31849;55.992;37.252;2024-02-16T13:17:16;100685.63;;;-5.64;60.02
46111;BME280;31849;55.992;37.252;2024-02-16T13:22:22;100680.56;;;-5.74;59.65
46111;BME280;31849;55.992;37.252;2024-02-16T13:27:26;100688.41;;;-5.81;60.29
46111;BME280;31849;55.992;37.252;2024-02-16T13:32:30;100680.69;;;-5.93;60.16
46111;BME280;31849;55.992;37.252;2024-02-16T13:37:35;100680.81;;;-5.92;60.37
46111;BME280;31849;55.992;37.252;2024-02-16T13:42:39;100681.84;;;-6.00;60.80
46111;BME280;31849;55.992;37.252;2024-02-16T13:47:43;100686.03;;;-6.11;60.93
46111;BME280;31849;55.992;37.252;2024-02-16T13:52:49;100685.41;;;-6.19;60.45
46111;BME280;31849;55.992;37.252;2024-02-16T13:57:56;100689.16;;;-6.24;60.77
46111;BME280;31849;55.992;37.252;2024-02-16T14:03:05;100687.16;;;-6.28;61.33
46111;BME280;31849;55.992;37.252;2024-02-16T14:08:12;100680.44;;;-6.27;60.75
46111;BME280;31849;55.992;37.252;2024-02-16T14:13:18;100691.81;;;-6.32;61.47
46111;BME280;31849;55.992;37.252;2024-02-16T14:18:22;100694.22;;;-6.34;61.04
46111;BME280;31849;55.992;37.252;2024-02-16T14:23:37;100685.00;;;-6.23;61.81
46111;BME280;31849;55.992;37.252;2024-02-16T14:28:42;100686.88;;;-6.21;61.21
46111;BME280;31849;55.992;37.252;2024-02-16T14:33:46;100685.91;;;-6.12;60.89
46111;BME280;31849;55.992;37.252;2024-02-16T14:38:52;100688.25;;;-6.45;61.80
46111;BME280;31849;55.992;37.252;2024-02-16T14:43:56;100686.81;;;-6.62;62.30
46111;BME280;31849;55.992;37.252;2024-02-16T14:49:01;100680.97;;;-6.71;62.48
46111;BME280;31849;55.992;37.252;2024-02-16T14:54:06;100682.28;;;-6.56;61.86
46111;BME280;31849;55.992;37.252;2024-02-16T14:59:12;100677.72;;;-6.60;62.55
46111;BME280;31849;55.992;37.252;2024-02-16T15:04:16;100662.53;;;-6.60;61.80
46111;BME280;31849;55.992;37.252;2024-02-16T15:09:35;100658.31;;;-6.69;62.22
46111;BME280;31849;55.992;37.252;2024-02-16T15:14:39;100668.72;;;-6.66;61.79
46111;BME280;31849;55.992;37.252;2024-02-16T15:19:43;100675.28;;;-6.68;61.79
46111;BME280;31849;55.992;37.252;2024-02-16T15:24:49;100672.97;;;-6.76;62.09
46111;BME280;31849;55.992;37.252;2024-02-16T15:29:53;100671.28;;;-6.96;62.78
46111;BME280;31849;55.992;37.252;2024-02-16T15:34:57;100684.00;;;-7.04;62.88
46111;BME280;31849;55.992;37.252;2024-02-16T15:40:16;100681.44;;;-7.15;62.77
46111;BME280;31849;55.992;37.252;2024-02-16T15:45:34;100680.97;;;-7.30;63.88
46111;BME280;31849;55.992;37.252;2024-02-16T15:50:42;100683.41;;;-7.21;62.75
46111;BME280;31849;55.992;37.252;2024-02-16T15:55:48;100674.94;;;-7.21;63.80
46111;BME280;31849;55.992;37.252;2024-02-16T16:00:52;100681.22;;;-7.08;63.05
46111;BME280;31849;55.992;37.252;2024-02-16T16:05:56;100686.97;;;-6.90;63.15
46111;BME280;31849;55.992;37.252;2024-02-16T16:11:02;100689.88;;;-7.14;63.41
46111;BME280;31849;55.992;37.252;2024-02-16T16:16:06;100679.91;;;-7.13;63.03
46111;BME280;31849;55.992;37.252;2024-02-16T16:21:10;100699.06;;;-7.25;63.68
46111;BME280;31849;55.992;37.252;2024-02-16T16:26:17;100696.94;;;-7.39;63.51
46111;BME280;31849;55.992;37.252;2024-02-16T16:31:23;100690.47;;;-7.27;63.05
46111;BME280;31849;55.992;37.252;2024-02-16T16:36:27;100692.88;;;-7.48;63.81
46111;BME280;31849;55.992;37.252;2024-02-16T16:41:32;100703.72;;;-7.49;63.85
46111;BME280;31849;55.992;37.252;2024-02-16T16:46:36;100694.63;;;-7.47;64.41
46111;BME280;31849;55.992;37.252;2024-02-16T16:51:40;100697.53;;;-7.23;63.81
46111;BME280;31849;55.992;37.252;2024-02-16T16:56:46;100694.28;;;-7.41;64.37
46111;BME280;31849;55.992;37.252;2024-02-16T17:01:50;100691.69;;;-7.51;63.70
46111;BME280;31849;55.992;37.252;2024-02-16T17:06:54;100680.22;;;-7.29;63.68
46111;BME280;31849;55.992;37.252;2024-02-16T17:11:59;100696.31;;;-7.18;63.40
46111;BME280;31849;55.992;37.252;2024-02-16T17:17:06;100693.31;;;-7.14;63.42
46111;BME280;31849;55.992;37.252;2024-02-16T17:22:10;100693.50;;;-7.02;63.66
46111;BME280;31849;55.992;37.252;2024-02-16T17:27:15;100681.91;;;-7.19;63.83
46111;BME280;31849;55.992;37.252;2024-02-16T17:32:20;100674.63;;;-7.05;63.32
46111;BME280;31849;55.992;37.252;2024-02-16T17:37:26;100683.09;;;-7.34;64.23
46111;BME280;31849;55.992;37.252;2024-02-16T17:42:31;100682.22;;;-7.54;64.79
46111;BME280;31849;55.992;37.252;2024-02-16T17:47:36;100680.97;;;-7.68;64.91
46111;BME280;31849;55.992;37.252;2024-02-16T17:52:40;100682.22;;;-7.73;65.23
46111;BME280;31849;55.992;37.252;2024-02-16T17:57:46;100676.47;;;-7.81;65.66
46111;BME280;31849;55.992;37.252;2024-02-16T18:02:50;100669.66;;;-7.82;65.33
46111;BME280;31849;55.992;37.252;2024-02-16T18:07:54;100676.44;;;-8.00;66.33
46111;BME280;31849;55.992;37.252;2024-02-16T18:13:00;100678.72;;;-7.84;65.30
46111;BME280;31849;55.992;37.252;2024-02-16T18:18:04;100673.19;;;-7.80;65.39
46111;BME280;31849;55.992;37.252;2024-02-16T18:23:09;100671.84;;;-7.76;65.33
46111;BME280;31849;55.992;37.252;2024-02-16T18:28:14;100669.13;;;-7.69;64.90
46111;BME280;31849;55.992;37.252;2024-02-16T18:33:27;100669.09;;;-7.88;66.05
46111;BME280;31849;55.992;37.252;2024-02-16T18:38:45;100663.59;;;-7.84;65.57
46111;BME280;31849;55.992;37.252;2024-02-16T18:43:51;100659.53;;;-8.01;66.69
46111;BME280;31849;55.992;37.252;2024-02-16T18:48:55;100670.31;;;-7.93;66.18
46111;BME280;31849;55.992;37.252;2024-02-16T18:53:59;100662.41;;;-7.87;65.81
46111;BME280;31849;55.992;37.252;2024-02-16T18:59:05;100655.47;;;-7.99;66.58
46111;BME280;31849;55.992;37.252;2024-02-16T19:04:10;100655.91;;;-7.75;65.13
46111;BME280;31849;55.992;37.252;2024-02-16T19:09:15;100651.09;;;-7.82;65.99
46111;BME280;31849;55.992;37.252;2024-02-16T19:14:21;100652.31;;;-7.87;66.30
46111;BME280;31849;55.992;37.252;2024-02-16T19:19:26;100637.16;;;-7.87;66.17
46111;BME280;31849;55.992;37.252;2024-02-16T19:24:32;100644.91;;;-7.95;66.14
46111;BME280;31849;55.992;37.252;2024-02-16T19:29:46;100642.25;;;-7.96;66.24
46111;BME280;31849;55.992;37.252;2024-02-16T19:34:51;100644.50;;;-7.99;66.38
46111;BME280;31849;55.992;37.252;2024-02-16T19:39:56;100639.19;;;-8.30;67.92
46111;BME280;31849;55.992;37.252;2024-02-16T19:45:01;100632.50;;;-8.02;66.11
46111;BME280;31849;55.992;37.252;2024-02-16T19:50:07;100635.28;;;-7.99;66.68
46111;BME280;31849;55.992;37.252;2024-02-16T19:55:13;100633.59;;;-8.08;66.59
46111;BME280;31849;55.992;37.252;2024-02-16T20:00:20;100639.00;;;-7.95;66.08
46111;BME280;31849;55.992;37.252;2024-02-16T20:05:24;100627.78;;;-7.88;66.44
46111;BME280;31849;55.992;37.252;2024-02-16T20:10:28;100624.75;;;-7.75;65.42
46111;BME280;31849;55.992;37.252;2024-02-16T20:15:33;100624.66;;;-7.86;66.49
46111;BME280;31849;55.992;37.252;2024-02-16T20:20:37;100626.91;;;-7.89;66.44
46111;BME280;31849;55.992;37.252;2024-02-16T20:25:41;100632.03;;;-7.98;67.00
46111;BME280;31849;55.992;37.252;2024-02-16T20:30:47;100631.28;;;-7.97;66.21
46111;BME280;31849;55.992;37.252;2024-02-16T20:35:51;100622.00;;;-7.87;65.79
46111;BME280;31849;55.992;37.252;2024-02-16T20:40:55;100600.59;;;-8.01;66.45
46111;BME280;31849;55.992;37.252;2024-02-16T20:46:02;100610.97;;;-7.98;66.43
46111;BME280;31849;55.992;37.252;2024-02-16T20:51:07;100609.72;;;-7.93;66.42
46111;BME280;31849;55.992;37.252;2024-02-16T20:56:11;100592.88;;;-8.03;66.21
46111;BME280;31849;55.992;37.252;2024-02-16T21:01:20;100585.78;;;-8.07;66.59
46111;BME280;31849;55.992;37.252;2024-02-16T21:06:24;100588.91;;;-8.09;66.46
46111;BME280;31849;55.992;37.252;2024-02-16T21:11:46;100594.22;;;-8.06;66.61
46111;BME280;31849;55.992;37.252;2024-02-16T21:16:51;100584.00;;;-8.08;67.00
46111;BME280;31849;55.992;37.252;2024-02-16T21:21:55;100593.34;;;-8.07;66.65
46111;BME280;31849;55.992;37.252;2024-02-16T21:26:59;100583.59;;;-8.13;67.06
46111;BME280;31849;55.992;37.252;2024-02-16T21:32:05;100594.88;;;-8.37;67.55
46111;BME280;31849;55.992;37.252;2024-02-16T21:37:10;100597.44;;;-8.18;67.05
46111;BME280;31849;55.992;37.252;2024-02-16T21:42:27;100583.81;;;-8.01;66.07
46111;BME280;31849;55.992;37.252;2024-02-16T21:47:33;100591.09;;;-8.04;67.14
46111;BME280;31849;55.992;37.252;2024-02-16T21:52:38;100590.28;;;-7.94;65.96
46111;BME280;31849;55.992;37.252;2024-02-16T21:57:42;100573.75;;;-8.09;66.62
46111;BME280;31849;55.992;37.252;2024-02-16T22:02:47;100571.38;;;-8.08;67.17
46111;BME280;31849;55.992;37.252;2024-02-16T22:07:52;100574.81;;;-8.07;66.64
46111;BME280;31849;55.992;37.252;2024-02-16T22:12:55;100575.69;;;-8.07;67.14
46111;BME280;31849;55.992;37.252;2024-02-16T22:18:01;100562.25;;;-8.16;67.24
46111;BME280;31849;55.992;37.252;2024-02-16T22:23:19;100556.22;;;-8.08;67.28
46111;BME280;31849;55.992;37.252;2024-02-16T22:28:23;100555.22;;;-8.10;66.98
46111;BME280;31849;55.992;37.252;2024-02-16T22:33:29;100545.00;;;-8.11;67.52
46111;BME280;31849;55.992;37.252;2024-02-16T22:38:33;100549.56;;;-8.07;67.24
46111;BME280;31849;55.992;37.252;2024-02-16T22:43:37;100542.19;;;-8.15;66.80
46111;BME280;31849;55.992;37.252;2024-02-16T22:48:42;100529.72;;;-8.13;67.49
46111;BME280;31849;55.992;37.252;2024-02-16T22:53:47;100540.88;;;-8.20;67.50
46111;BME280;31849;55.992;37.252;2024-02-16T22:58:51;100539.47;;;-8.07;67.14
46111;BME280;31849;55.992;37.252;2024-02-16T23:03:56;100541.91;;;-7.99;67.17
46111;BME280;31849;55.992;37.252;2024-02-16T23:09:00;100531.53;;;-8.02;67.97
46111;BME280;31849;55.992;37.252;2024-02-16T23:14:04;100524.00;;;-8.21;68.33
46111;BME280;31849;55.992;37.252;2024-02-16T23:19:11;100518.38;;;-8.08;67.38
46111;BME280;31849;55.992;37.252;2024-02-16T23:24:15;100516.50;;;-8.29;67.94
46111;BME280;31849;55.992;37.252;2024-02-16T23:29:18;100506.13;;;-8.33;68.63
46111;BME280;31849;55.992;37.252;2024-02-16T23:34:24;100490.03;;;-8.24;67.92
46111;BME280;31849;55.992;37.252;2024-02-16T23:39:29;100478.91;;;-8.26;69.07
46111;BME280;31849;55.992;37.252;2024-02-16T23:44:33;100473.88;;;-8.26;69.14
46111;BME280;31849;55.992;37.252;2024-02-16T23:49:38;100454.75;;;-8.33;68.69
46111;BME280;31849;55.992;37.252;2024-02-16T23:54:43;100465.97;;;-8.21;68.37
46111;BME280;31849;55.992;37.252;2024-02-16T23:59:47;100467.56;;;-8.21;68.20
